PROFILE

 METAR AND TAF INFORMATION
ADDS - METARS form results

(0745 UTC 19 August 2019)
http://aviationweather.gov/metar/data/
 
TNCM 190700Z 07010KT 9999 -SHRA SCT016 27/24 Q1016 A3000
TNCM 190549Z 1906/2006 07007KT P6SM VCTS SCT018CB BKN050 TEMPO 1906/1908 VRB12G20KT 3SM SHRA BKN020 FM191200 10012KT P6SM VCSH SCT018 FM191600 12014KT P6SM VCSH SCT018 BKN050 FM192200 09005KT P6SM VCSH SCT018 

 AIRPORT MAP

 RUNWAY INFORMATION
Runway 10 Runway length 7546 ft Runway width 150 ft
Runway elevation 13 ft Runway displaced threshold 0 ft Runway heading 96
Runway 28 Runway length 7546 ft Runway width 150 ft
Runway elevation 9 ft Runway displaced threshold 328 ft Runway heading 276

 AIRPORT FREQUENCIES
Type APP Name JULIANA AP Frequency 128.95 MHZ
Type TWR Name JULIANA TW Frequency 118.7 MHZ

 AIRPORT NEAR NAVIGATION AIDS
Type NDB Name St.mMarten Frequency 284 KHZ
Type VOR-DME Name St.mMarten Frequency 113000 KHZ